Time;durP1;ratioP1;P1;durP2;ratioP2;P2;SDS_P1;SDS_P2;PMS_P1;PMS_P2;Temp;Humidity;BMP_temperature;BMP_pressure;BME280_temperature;BME280_humidity;BME280_pressure;Samples;Min_cycle;Max_cycle;Signal;HPM_P1;HPM_P2
2022/06/25 00:00:59;;;;;;;;;;;;;;;18.83;100.00;99760.13;5011169;28;19997;-86
2022/06/25 00:03:24;;;;;;;;;;;;;;;18.82;100.00;99761.09;4993032;28;20354;-83
2022/06/25 00:05:49;;;;;;;;;;;;;;;18.78;100.00;99755.03;4993023;28;19951;-83
2022/06/25 00:08:15;;;;;;;;;;;;;;;18.76;100.00;99761.53;4993148;28;20527;-86
2022/06/25 00:10:40;;;;;;;;;;;;;;;18.73;100.00;99762.59;4993467;28;20004;-86
2022/06/25 00:13:06;;;;;;;;;;;;;;;18.71;100.00;99769.06;4994063;28;19933;-83
2022/06/25 00:15:32;;;;;;;;;;;;;;;18.68;100.00;99761.19;4994276;28;19940;-83
2022/06/25 00:17:57;;;;;;;;;;;;;;;18.66;100.00;99766.69;5011318;28;19970;-87
2022/06/25 00:20:23;;;;;;;;;;;;;;;18.64;100.00;99759.69;4994619;28;19980;-85
2022/06/25 00:22:48;;;;;;;;;;;;;;;18.66;100.00;99763.13;4994126;28;19955;-86
2022/06/25 00:25:13;;;;;;;;;;;;;;;18.67;100.00;99762.16;4994384;28;19933;-83
2022/06/25 00:27:38;;;;;;;;;;;;;;;18.66;100.00;99768.53;5006690;28;20299;-85
2022/06/25 00:30:05;;;;;;;;;;;;;;;18.68;100.00;99770.13;5013647;28;19936;-83
2022/06/25 00:32:30;;;;;;;;;;;;;;;18.65;100.00;99764.13;5031552;28;20017;-83
2022/06/25 00:34:55;;;;;;;;;;;;;;;18.65;100.00;99764.13;5013949;28;20417;-86
2022/06/25 00:37:20;;;;;;;;;;;;;;;18.69;100.00;99768.31;5013706;28;20026;-86
2022/06/25 00:39:46;;;;;;;;;;;;;;;18.69;100.00;99769.16;5013766;28;19928;-83
2022/06/25 00:42:12;;;;;;;;;;;;;;;18.69;100.00;99776.38;5031190;28;19945;-83
2022/06/25 00:44:38;;;;;;;;;;;;;;;18.65;100.00;99774.88;5019757;28;19938;-84
2022/06/25 00:47:07;;;;;;;;;;;;;;;18.67;100.00;99783.69;4992542;28;19936;-82
2022/06/25 00:49:32;;;;;;;;;;;;;;;18.63;100.00;99774.13;5010398;28;19975;-83
2022/06/25 00:52:00;;;;;;;;;;;;;;;18.64;100.00;99782.09;4996279;28;19990;-86
2022/06/25 00:54:27;;;;;;;;;;;;;;;18.63;100.00;99779.50;5014173;28;20277;-82
2022/06/25 00:56:52;;;;;;;;;;;;;;;18.62;100.00;99780.47;4996383;28;19969;-86
2022/06/25 00:59:27;;;;;;;;;;;;;;;18.63;100.00;99776.81;4997569;28;19977;-87
2022/06/25 01:01:52;;;;;;;;;;;;;;;18.67;100.00;99786.41;4998060;28;19960;-85
2022/06/25 01:04:18;;;;;;;;;;;;;;;18.65;100.00;99774.88;4996786;28;19928;-85
2022/06/25 01:06:43;;;;;;;;;;;;;;;18.65;100.00;99782.97;4997564;28;19962;-82
2022/06/25 01:09:09;;;;;;;;;;;;;;;18.61;100.00;99785.00;4996390;28;19982;-85
2022/06/25 01:11:34;;;;;;;;;;;;;;;18.60;100.00;99787.81;4995848;28;19939;-82
2022/06/25 01:14:05;;;;;;;;;;;;;;;18.63;100.00;99782.22;4996647;28;19936;-86
2022/06/25 01:16:30;;;;;;;;;;;;;;;18.60;100.00;99780.56;5013196;28;20465;-82
2022/06/25 01:18:56;;;;;;;;;;;;;;;18.60;100.00;99779.72;4996216;28;20019;-82
2022/06/25 01:21:21;;;;;;;;;;;;;;;18.57;100.00;99779.91;4996326;28;20029;-82
2022/06/25 01:23:47;;;;;;;;;;;;;;;18.57;100.00;99783.47;4996414;28;20039;-82
2022/06/25 01:26:12;;;;;;;;;;;;;;;18.57;100.00;99780.78;4997645;28;19946;-85
2022/06/25 01:28:38;;;;;;;;;;;;;;;18.53;100.00;99781.13;5034300;28;19934;-81
2022/06/25 01:31:03;;;;;;;;;;;;;;;18.49;100.00;99782.28;5016877;28;20382;-85
2022/06/25 01:33:28;;;;;;;;;;;;;;;18.44;100.00;99781.72;5016593;28;19928;-85
2022/06/25 01:35:54;;;;;;;;;;;;;;;18.46;100.00;99783.38;5016470;28;20244;-84
2022/06/25 01:38:19;;;;;;;;;;;;;;;18.45;100.00;99778.94;5016629;28;19978;-84
2022/06/25 01:40:44;;;;;;;;;;;;;;;18.46;100.00;99787.88;5016370;28;19938;-81
2022/06/25 01:43:10;;;;;;;;;;;;;;;18.46;100.00;99795.97;5016319;28;20451;-82
2022/06/25 01:45:37;;;;;;;;;;;;;;;18.48;100.00;99783.25;5015927;28;19932;-82
2022/06/25 01:48:03;;;;;;;;;;;;;;;18.47;100.00;99786.94;5013166;28;19931;-82
2022/06/25 01:50:29;;;;;;;;;;;;;;;18.46;100.00;99790.56;5013751;28;20332;-85
2022/06/25 01:52:54;;;;;;;;;;;;;;;18.44;100.00;99793.38;5014393;28;19925;-82
2022/06/25 01:55:20;;;;;;;;;;;;;;;18.44;100.00;99792.50;5014255;28;19929;-82
2022/06/25 01:57:46;;;;;;;;;;;;;;;18.44;100.00;99785.28;4996485;28;19935;-82
2022/06/25 02:00:13;;;;;;;;;;;;;;;18.45;100.00;99786.16;4996328;28;19932;-82
2022/06/25 02:02:39;;;;;;;;;;;;;;;18.44;100.00;99793.38;5014043;28;20331;-85
2022/06/25 02:05:05;;;;;;;;;;;;;;;18.42;100.00;99799.84;4996415;28;20409;-82
2022/06/25 02:07:31;;;;;;;;;;;;;;;18.39;100.00;99795.50;5014036;28;20390;-85
2022/06/25 02:09:56;;;;;;;;;;;;;;;18.35;100.00;99802.06;5013825;28;19926;-83
2022/06/25 02:12:21;;;;;;;;;;;;;;;18.34;100.00;99792.22;5013876;28;20015;-86
2022/06/25 02:14:46;;;;;;;;;;;;;;;18.32;100.00;99795.03;4996369;28;19939;-85
2022/06/25 02:17:12;;;;;;;;;;;;;;;18.30;100.00;99799.66;4996708;28;19942;-85
2022/06/25 02:19:37;;;;;;;;;;;;;;;18.26;100.00;99798.16;5012463;28;19970;-85
2022/06/25 02:22:03;;;;;;;;;;;;;;;18.24;100.00;99801.91;5013614;28;20351;-82
2022/06/25 02:24:28;;;;;;;;;;;;;;;18.25;100.00;99809.03;5013656;28;19934;-82
2022/06/25 02:26:53;;;;;;;;;;;;;;;18.24;100.00;99802.78;5013297;28;19935;-83
2022/06/25 02:29:19;;;;;;;;;;;;;;;18.21;100.00;99797.59;4995673;28;19960;-81
2022/06/25 02:31:44;;;;;;;;;;;;;;;18.17;100.00;99800.59;4996058;28;19936;-82
2022/06/25 02:34:09;;;;;;;;;;;;;;;18.17;100.00;99795.22;5013767;28;19996;-82
2022/06/25 02:36:34;;;;;;;;;;;;;;;18.13;100.00;99793.69;4995986;28;19937;-83
2022/06/25 02:39:00;;;;;;;;;;;;;;;18.08;100.00;99801.19;5013359;28;19937;-82
2022/06/25 02:41:25;;;;;;;;;;;;;;;18.05;100.00;99807.66;4995463;28;20413;-83
2022/06/25 02:43:50;;;;;;;;;;;;;;;18.06;100.00;99797.75;4991576;28;20035;-83
2022/06/25 02:46:16;;;;;;;;;;;;;;;18.08;100.00;99790.44;4992610;28;19924;-87
2022/06/25 02:48:41;;;;;;;;;;;;;;;18.08;100.00;99795.81;4974834;28;20000;-86
2022/06/25 02:51:06;;;;;;;;;;;;;;;18.06;100.00;99793.22;4974934;28;20024;-87
2022/06/25 02:53:32;;;;;;;;;;;;;;;18.04;100.00;99792.47;4974937;28;19951;-83
2022/06/25 02:58:56;;;;;;;;;;;;;;;18.05;100.00;99791.53;4992048;28;19939;-85
2022/06/25 03:01:22;;;;;;;;;;;;;;;18.01;100.00;99795.38;4975079;28;19953;-86
2022/06/25 03:03:47;;;;;;;;;;;;;;;17.99;100.00;99791.91;4991315;28;20286;-86
2022/06/25 03:06:13;;;;;;;;;;;;;;;18.00;100.00;99799.03;4975174;28;20475;-83
2022/06/25 03:08:38;;;;;;;;;;;;;;;18.01;100.00;99795.38;4975293;28;20347;-82
2022/06/25 03:11:04;;;;;;;;;;;;;;;17.99;100.00;99805.38;4993520;28;19926;-87
2022/06/25 03:13:31;;;;;;;;;;;;;;;17.98;100.00;99800.97;4994176;28;19927;-86
2022/06/25 03:15:57;;;;;;;;;;;;;;;17.98;100.00;99808.16;5012919;28;19927;-83
2022/06/25 03:18:22;;;;;;;;;;;;;;;17.97;100.00;99807.28;5010193;28;19930;-83
2022/06/25 03:20:47;;;;;;;;;;;;;;;17.95;100.00;99803.84;5011341;28;20426;-86
2022/06/25 03:23:12;;;;;;;;;;;;;;;17.95;100.00;99801.16;5009618;28;19982;-87
2022/06/25 03:25:38;;;;;;;;;;;;;;;17.91;100.00;99810.38;5011258;28;19933;-86
2022/06/25 03:28:03;;;;;;;;;;;;;;;17.91;100.00;99814.91;5013265;28;19933;-86
2022/06/25 03:30:28;;;;;;;;;;;;;;;17.89;100.00;99817.69;5012982;28;19937;-86
2022/06/25 03:32:54;;;;;;;;;;;;;;;17.90;100.00;99818.56;5013694;28;19986;-86
2022/06/25 03:35:19;;;;;;;;;;;;;;;17.86;100.00;99828.66;5031981;28;19927;-83
2022/06/25 03:37:44;;;;;;;;;;;;;;;17.82;100.00;99832.53;5032320;28;19930;-82
2022/06/25 03:40:10;;;;;;;;;;;;;;;17.79;100.00;99832.72;5014102;28;19931;-82
2022/06/25 03:42:35;;;;;;;;;;;;;;;17.82;100.00;99831.66;5002284;28;19944;-85
2022/06/25 03:45:01;;;;;;;;;;;;;;;17.82;100.00;99827.16;4994831;28;20310;-83
2022/06/25 03:47:26;;;;;;;;;;;;;;;17.83;100.00;99823.47;4994821;28;19941;-82
2022/06/25 03:49:53;;;;;;;;;;;;;;;17.83;100.00;99828.88;5012497;28;19934;-86
2022/06/25 03:52:19;;;;;;;;;;;;;;;17.84;100.00;99835.97;5012219;28;20327;-82
2022/06/25 03:54:44;;;;;;;;;;;;;;;17.86;100.00;99834.03;5010870;28;19928;-83
2022/06/25 03:57:09;;;;;;;;;;;;;;;17.89;100.00;99843.75;5012230;28;19927;-83
2022/06/25 03:59:35;;;;;;;;;;;;;;;17.93;100.00;99838.06;4994513;28;19932;-86
2022/06/25 04:02:00;;;;;;;;;;;;;;;17.97;100.00;99839.56;5011010;28;19948;-83
2022/06/25 04:04:25;;;;;;;;;;;;;;;18.01;100.00;99842.94;4994438;28;19962;-82
2022/06/25 04:06:51;;;;;;;;;;;;;;;18.03;100.00;99841.03;5010679;28;19965;-86
2022/06/25 04:09:16;;;;;;;;;;;;;;;18.04;100.00;99842.72;5010797;28;20316;-86
2022/06/25 04:11:41;;;;;;;;;;;;;;;18.06;100.00;99846.19;5011882;28;19930;-85
2022/06/25 04:14:07;;;;;;;;;;;;;;;18.04;100.00;99854.38;5007967;28;19935;-82
2022/06/25 04:16:33;;;;;;;;;;;;;;;18.06;100.00;99847.06;5011902;28;19923;-82
2022/06/25 04:18:58;;;;;;;;;;;;;;;18.11;100.00;99852.13;4994849;28;19932;-85
2022/06/25 04:21:23;;;;;;;;;;;;;;;18.14;100.00;99857.31;4994284;28;19945;-85
2022/06/25 04:23:48;;;;;;;;;;;;;;;18.15;100.00;99854.53;5012408;28;20069;-81
2022/06/25 04:26:14;;;;;;;;;;;;;;;18.26;100.00;99860.09;5014599;28;20029;-82
2022/06/25 04:31:23;;;;;;;;;;;;;;;18.43;100.00;99860.81;5035838;28;20070;-82
2022/06/25 04:33:48;;;;;;;;;;;;;;;18.53;100.00;99861.94;5035591;28;20023;-82
2022/06/25 04:36:14;;;;;;;;;;;;;;;18.61;100.00;99864.97;5017380;28;19932;-83
2022/06/25 04:38:39;;;;;;;;;;;;;;;18.68;100.00;99861.72;5017654;28;19936;-83
2022/06/25 04:41:04;;;;;;;;;;;;;;;18.75;100.00;99854.09;5017491;28;19946;-86
2022/06/25 04:43:30;;;;;;;;;;;;;;;18.86;100.00;99854.25;5016757;28;20303;-86
2022/06/25 04:45:55;;;;;;;;;;;;;;;18.95;100.00;99843.69;5014514;28;19942;-82
2022/06/25 04:48:20;;;;;;;;;;;;;;;19.02;100.00;99838.72;5014240;28;19940;-83
2022/06/25 04:50:46;;;;;;;;;;;;;;;19.04;100.00;99843.06;4997344;28;19929;-86
2022/06/25 04:53:12;;;;;;;;;;;;;;;19.07;100.00;99847.34;5015005;28;19935;-82
2022/06/25 04:55:37;;;;;;;;;;;;;;;19.06;100.00;99845.66;5014949;28;20030;-83
2022/06/25 04:58:03;;;;;;;;;;;;;;;19.13;100.00;99846.91;5015644;28;20020;-82
2022/06/25 05:00:28;;;;;;;;;;;;;;;19.17;100.00;99843.06;5015241;28;19931;-83
2022/06/25 05:02:53;;;;;;;;;;;;;;;19.20;100.00;99842.81;4997454;28;20552;-83
2022/06/25 05:05:19;;;;;;;;;;;;;;;19.23;99.51;99848.00;5015401;28;19952;-85
2022/06/25 05:07:44;;;;;;;;;;;;;;;19.33;99.13;99849.97;4998131;28;19936;-83
2022/06/25 05:10:09;;;;;;;;;;;;;;;19.37;99.62;99856.03;5016105;28;19928;-86
2022/06/25 05:15:19;;;;;;;;;;;;;;;19.61;99.12;99843.47;5016182;28;20031;-83
2022/06/25 05:17:44;;;;;;;;;;;;;;;19.67;97.45;99850.28;4997961;28;19974;-83
2022/06/25 05:20:10;;;;;;;;;;;;;;;19.68;97.56;99852.84;5015609;28;19935;-83
2022/06/25 05:22:35;;;;;;;;;;;;;;;19.77;97.02;99854.03;4998063;28;20450;-86
2022/06/25 05:25:00;;;;;;;;;;;;;;;19.82;96.62;99858.09;4998018;28;19949;-82
2022/06/25 05:27:27;;;;;;;;;;;;;;;19.87;95.77;99861.34;5008033;28;19935;-83
2022/06/25 05:29:53;;;;;;;;;;;;;;;19.90;95.38;99855.69;5017321;28;20423;-84
2022/06/25 05:32:18;;;;;;;;;;;;;;;20.03;94.96;99855.69;5017594;28;20018;-83
2022/06/25 05:34:43;;;;;;;;;;;;;;;20.14;94.37;99853.03;5034880;28;20375;-87
2022/06/25 05:37:09;;;;;;;;;;;;;;;20.21;94.94;99860.63;5034683;28;19928;-87
2022/06/25 05:39:34;;;;;;;;;;;;;;;20.25;93.77;99851.31;5016776;28;20298;-87
2022/06/25 05:41:59;;;;;;;;;;;;;;;20.36;93.12;99855.91;5016972;28;19963;-84
2022/06/25 05:44:25;;;;;;;;;;;;;;;20.51;93.35;99852.91;5026732;28;19937;-85
2022/06/25 05:46:50;;;;;;;;;;;;;;;20.59;92.16;99861.28;5015329;28;20279;-84
2022/06/25 05:49:15;;;;;;;;;;;;;;;20.75;91.84;99861.88;4996653;28;19986;-83
2022/06/25 05:51:40;;;;;;;;;;;;;;;20.93;90.17;99854.16;4996881;28;20298;-83
2022/06/25 05:54:06;;;;;;;;;;;;;;;21.05;90.38;99860.50;4997443;28;20025;-83
2022/06/25 05:56:31;;;;;;;;;;;;;;;21.32;89.34;99861.03;5014813;28;20386;-83
2022/06/25 05:58:56;;;;;;;;;;;;;;;21.59;88.54;99866.97;5014536;28;19926;-87
2022/06/25 06:01:22;;;;;;;;;;;;;;;21.78;87.60;99868.09;5014022;28;20455;-83
2022/06/25 06:03:47;;;;;;;;;;;;;;;21.98;86.60;99870.06;4996517;28;19929;-83
2022/06/25 06:06:12;;;;;;;;;;;;;;;22.03;84.04;99865.13;4996226;28;19969;-83
2022/06/25 06:08:38;;;;;;;;;;;;;;;22.05;80.69;99875.84;5012566;28;19926;-87
2022/06/25 06:11:03;;;;;;;;;;;;;;;22.12;80.93;99880.63;5014549;28;20016;-82
2022/06/25 06:13:32;;;;;;;;;;;;;;;22.26;81.58;99876.78;4995341;28;19933;-85
2022/06/25 06:15:57;;;;;;;;;;;;;;;22.42;81.26;99877.22;5013482;28;19930;-83
2022/06/25 06:18:22;;;;;;;;;;;;;;;22.42;80.24;99871.78;5012647;28;19929;-86
2022/06/25 06:20:48;;;;;;;;;;;;;;;22.39;78.80;99882.06;5011935;28;20019;-82
2022/06/25 06:23:14;;;;;;;;;;;;;;;22.47;79.96;99880.41;5014209;28;19943;-82
2022/06/25 06:25:39;;;;;;;;;;;;;;;22.50;80.24;99879.31;5014455;28;19942;-83
2022/06/25 06:28:04;;;;;;;;;;;;;;;22.57;79.97;99875.97;5014651;28;19933;-86
2022/06/25 06:30:30;;;;;;;;;;;;;;;22.61;80.70;99879.28;4996605;28;19958;-86
2022/06/25 06:32:55;;;;;;;;;;;;;;;22.52;80.31;99871.91;4996631;28;19988;-85
2022/06/25 06:35:20;;;;;;;;;;;;;;;22.68;80.58;99873.25;4995466;28;19939;-85
2022/06/25 06:37:46;;;;;;;;;;;;;;;22.84;80.63;99868.22;4996255;28;20342;-82
2022/06/25 06:40:11;;;;;;;;;;;;;;;23.01;79.48;99869.50;5014383;28;19934;-85
2022/06/25 06:42:36;;;;;;;;;;;;;;;23.08;77.96;99860.69;4996177;28;19960;-85
2022/06/25 06:45:02;;;;;;;;;;;;;;;23.25;76.70;99873.66;4996244;28;20301;-86
2022/06/25 06:47:28;;;;;;;;;;;;;;;23.29;73.86;99867.00;5013073;28;19985;-83
2022/06/25 06:49:53;;;;;;;;;;;;;;;23.40;73.90;99863.34;5013519;28;19926;-82
2022/06/25 06:52:19;;;;;;;;;;;;;;;23.49;72.10;99861.69;5014884;28;19937;-82
2022/06/25 06:54:44;;;;;;;;;;;;;;;23.43;71.95;99868.50;4995934;28;20045;-85
2022/06/25 06:57:09;;;;;;;;;;;;;;;23.49;71.12;99861.69;4995968;28;19934;-86
2022/06/25 06:59:35;;;;;;;;;;;;;;;23.63;71.63;99869.47;5014230;28;19937;-85
2022/06/25 07:02:00;;;;;;;;;;;;;;;23.87;70.66;99861.88;5013968;28;19949;-82
2022/06/25 07:04:25;;;;;;;;;;;;;;;24.02;69.61;99863.25;5013491;28;20025;-82
2022/06/25 07:06:51;;;;;;;;;;;;;;;24.14;68.29;99867.56;4996132;28;19967;-85
2022/06/25 07:09:16;;;;;;;;;;;;;;;24.33;66.59;99862.19;5013729;28;19974;-86
2022/06/25 07:11:42;;;;;;;;;;;;;;;24.43;66.48;99853.03;4995564;28;19956;-85
2022/06/25 07:14:07;;;;;;;;;;;;;;;24.53;64.69;99858.47;4995201;28;20005;-85
2022/06/25 07:16:34;;;;;;;;;;;;;;;24.63;65.86;99851.16;4995752;28;19932;-85
2022/06/25 07:19:00;;;;;;;;;;;;;;;24.84;65.93;99846.50;5012960;28;19927;-81
2022/06/25 07:21:25;;;;;;;;;;;;;;;24.95;62.83;99854.50;4994950;28;19996;-84
2022/06/25 07:23:51;;;;;;;;;;;;;;;25.07;61.84;99850.63;4994889;28;20300;-81
2022/06/25 07:26:17;;;;;;;;;;;;;;;25.35;63.00;99841.59;5014082;28;20344;-85
2022/06/25 07:28:42;;;;;;;;;;;;;;;25.60;62.11;99848.25;5015927;28;20337;-82
2022/06/25 07:31:11;;;;;;;;;;;;;;;25.96;60.38;99842.75;5034057;28;19930;-85
2022/06/25 07:33:36;;;;;;;;;;;;;;;26.30;59.44;99837.56;5015753;28;20434;-84
2022/06/25 07:36:01;;;;;;;;;;;;;;;26.41;58.33;99837.34;5015552;28;19935;-85
2022/06/25 07:38:27;;;;;;;;;;;;;;;26.51;58.73;99838.13;5015467;28;20377;-82
2022/06/25 07:40:52;;;;;;;;;;;;;;;26.72;55.47;99835.97;5014999;28;19997;-83
2022/06/25 07:43:18;;;;;;;;;;;;;;;27.24;55.69;99828.75;5032917;28;19979;-82
2022/06/25 07:45:43;;;;;;;;;;;;;;;27.44;55.27;99827.56;5013440;28;20412;-82
2022/06/25 07:48:08;;;;;;;;;;;;;;;27.57;56.31;99821.66;5012504;28;19964;-81
2022/06/25 07:53:18;;;;;;;;;;;;;;;28.10;51.51;99830.47;5013109;28;19996;-84
2022/06/25 07:55:43;;;;;;;;;;;;;;;28.32;52.15;99830.72;4993652;28;19937;-85
2022/06/25 07:58:09;;;;;;;;;;;;;;;28.44;53.22;99829.38;4993469;28;20283;-84
2022/06/25 08:00:34;;;;;;;;;;;;;;;28.56;53.81;99819.00;5011504;28;19928;-84
2022/06/25 08:03:01;;;;;;;;;;;;;;;28.59;52.69;99832.34;4994481;28;19913;-84
2022/06/25 08:05:27;;;;;;;;;;;;;;;28.71;52.23;99822.78;5011260;28;20517;-81
2022/06/25 08:07:52;;;;;;;;;;;;;;;28.65;51.32;99823.44;4993487;28;20035;-81
2022/06/25 08:10:17;;;;;;;;;;;;;;;28.91;51.65;99826.06;5011596;28;19933;-80
2022/06/25 08:12:43;;;;;;;;;;;;;;;29.19;51.29;99820.06;5011310;28;20391;-85
2022/06/25 08:15:10;;;;;;;;;;;;;;;29.16;48.17;99819.56;5012195;28;19937;-81
2022/06/25 08:17:35;;;;;;;;;;;;;;;29.40;49.32;99817.66;5012654;28;19938;-84
2022/06/25 08:20:01;;;;;;;;;;;;;;;29.40;47.96;99823.13;4993242;28;19930;-80
2022/06/25 08:22:27;;;;;;;;;;;;;;;29.53;48.82;99819.84;4993075;28;19957;-80
2022/06/25 08:24:52;;;;;;;;;;;;;;;29.61;47.28;99825.31;5010429;28;19929;-84
2022/06/25 08:27:17;;;;;;;;;;;;;;;29.70;47.07;99824.28;5003279;28;19945;-84
2022/06/25 08:29:43;;;;;;;;;;;;;;;29.81;45.15;99828.53;5031456;28;19950;-84
2022/06/25 08:32:08;;;;;;;;;;;;;;;30.26;45.77;99815.00;5030384;28;20335;-81
2022/06/25 08:34:33;;;;;;;;;;;;;;;30.05;46.00;99822.97;5029744;28;19931;-85
2022/06/25 08:36:59;;;;;;;;;;;;;;;30.16;44.87;99817.94;5029960;28;19945;-84
2022/06/25 08:39:24;;;;;;;;;;;;;;;30.69;45.41;99812.47;4993323;28;20030;-84
2022/06/25 08:41:51;;;;;;;;;;;;;;;30.59;45.95;99816.50;4992500;28;19953;-85
2022/06/25 08:44:16;;;;;;;;;;;;;;;30.82;45.25;99807.25;4992607;28;19933;-84
2022/06/25 08:46:41;;;;;;;;;;;;;;;30.78;43.69;99794.94;4997115;28;19940;-85
2022/06/25 08:49:07;;;;;;;;;;;;;;;30.44;43.80;99801.84;5010134;28;19930;-85
2022/06/25 08:51:33;;;;;;;;;;;;;;;30.32;44.39;99798.66;5010146;28;19931;-84
2022/06/25 08:54:00;;;;;;;;;;;;;;;30.29;45.09;99803.66;5010665;28;19977;-85
2022/06/25 08:56:26;;;;;;;;;;;;;;;30.32;43.70;99806.03;4993631;28;19931;-85
2022/06/25 08:58:51;;;;;;;;;;;;;;;30.40;44.95;99801.34;5012022;28;19928;-84
2022/06/25 09:01:17;;;;;;;;;;;;;;;30.16;45.27;99801.47;4995180;28;19928;-85
2022/06/25 09:03:42;;;;;;;;;;;;;;;30.55;45.30;99798.66;4995266;28;19936;-81
2022/06/25 09:06:13;;;;;;;;;;;;;;;31.04;42.04;99800.03;5012072;28;19955;-84
2022/06/25 09:08:38;;;;;;;;;;;;;;;31.18;43.22;99790.09;4992828;28;19931;-84
2022/06/25 09:11:05;;;;;;;;;;;;;;;31.31;42.05;99795.81;4993567;28;19985;-82
2022/06/25 09:13:30;;;;;;;;;;;;;;;31.37;43.48;99795.13;5013836;28;19927;-81
2022/06/25 09:15:56;;;;;;;;;;;;;;;31.65;42.43;99798.91;4995898;28;19935;-82
2022/06/25 09:18:21;;;;;;;;;;;;;;;31.26;40.25;99790.88;5009481;28;20022;-85
2022/06/25 09:21:00;;;;;;;;;;;;;;;31.08;42.56;99789.50;5014177;28;19925;-84
2022/06/25 09:23:30;;;;;;;;;;;;;;;31.30;40.88;99783.13;4998117;28;20018;-82
2022/06/25 09:26:06;;;;;;;;;;;;;;;31.14;39.96;99794.28;4998588;28;19932;-85
2022/06/25 09:28:33;;;;;;;;;;;;;;;30.91;39.94;99787.97;5038986;28;19995;-85
2022/06/25 09:30:59;;;;;;;;;;;;;;;31.24;41.24;99790.22;5035450;28;19958;-81
2022/06/25 09:33:25;;;;;;;;;;;;;;;31.39;40.29;99788.38;5016816;28;19930;-82
2022/06/25 09:35:51;;;;;;;;;;;;;;;31.33;41.60;99791.88;5016980;28;19929;-81
2022/06/25 09:38:17;;;;;;;;;;;;;;;31.41;41.85;99779.94;5016804;28;19909;-85
2022/06/25 09:40:50;;;;;;;;;;;;;;;31.09;41.82;99786.56;5016196;28;20060;-81
2022/06/25 09:43:16;;;;;;;;;;;;;;;31.15;42.29;99787.75;5015347;28;19953;-84
2022/06/25 09:45:45;;;;;;;;;;;;;;;31.38;43.53;99791.31;5016891;28;19943;-82
2022/06/25 09:48:23;;;;;;;;;;;;;;;31.40;41.62;99778.25;4999298;28;19928;-82
2022/06/25 09:51:07;;;;;;;;;;;;;;;31.14;44.03;99784.13;5014701;28;20431;-86
2022/06/25 09:53:33;;;;;;;;;;;;;;;31.65;46.66;99782.41;4995571;28;19961;-81
2022/06/25 09:55:59;;;;;;;;;;;;;;;31.85;40.90;99772.53;5014225;28;20014;-82
2022/06/25 09:58:25;;;;;;;;;;;;;;;32.26;45.02;99773.72;4997582;28;19967;-85
2022/06/25 10:00:51;;;;;;;;;;;;;;;32.60;43.15;99779.44;4996663;28;19946;-81
2022/06/25 10:03:16;;;;;;;;;;;;;;;32.76;42.16;99770.03;5014427;28;19947;-82
2022/06/25 10:05:42;;;;;;;;;;;;;;;32.44;42.28;99771.41;5014260;28;20465;-85
2022/06/25 10:08:09;;;;;;;;;;;;;;;32.73;41.63;99760.28;4996603;28;19929;-84
2022/06/25 10:10:39;;;;;;;;;;;;;;;32.94;42.18;99760.31;4996316;28;19935;-82
2022/06/25 10:13:05;;;;;;;;;;;;;;;32.87;39.95;99766.75;5013883;28;19928;-82
2022/06/25 10:15:31;;;;;;;;;;;;;;;32.83;39.89;99758.06;4996397;28;20419;-82
2022/06/25 10:17:56;;;;;;;;;;;;;;;32.66;40.41;99756.59;4996404;28;19931;-82
2022/06/25 10:20:22;;;;;;;;;;;;;;;32.84;41.89;99761.63;5014433;28;19984;-86
2022/06/25 10:22:48;;;;;;;;;;;;;;;32.44;39.04;99763.16;4995422;28;19959;-82
2022/06/25 10:25:14;;;;;;;;;;;;;;;32.77;41.55;99753.31;5013568;28;19956;-84
2022/06/25 10:27:44;;;;;;;;;;;;;;;32.81;38.20;99751.03;5008183;28;19942;-82
2022/06/25 10:30:10;;;;;;;;;;;;;;;32.94;39.76;99759.44;5021590;28;19944;-82
2022/06/25 10:32:47;;;;;;;;;;;;;;;32.87;38.98;99753.84;5008001;28;20434;-85
2022/06/25 10:35:32;;;;;;;;;;;;;;;32.57;39.45;99748.69;5005827;28;20390;-85
2022/06/25 10:37:57;;;;;;;;;;;;;;;32.60;40.50;99735.38;4997474;28;19942;-82
2022/06/25 10:40:22;;;;;;;;;;;;;;;33.13;40.44;99726.50;5011156;28;20298;-82
2022/06/25 10:43:00;;;;;;;;;;;;;;;33.51;40.51;99734.44;5013319;28;19965;-84
2022/06/25 10:45:25;;;;;;;;;;;;;;;33.23;37.88;99738.03;4995237;28;19933;-85
2022/06/25 10:47:54;;;;;;;;;;;;;;;33.42;40.81;99724.63;4995793;28;19932;-83
2022/06/25 10:50:22;;;;;;;;;;;;;;;33.75;42.66;99722.88;5011341;28;19969;-85
2022/06/25 10:55:28;;;;;;;;;;;;;;;34.45;37.60;99712.34;5008360;28;20431;-85
2022/06/25 10:58:12;;;;;;;;;;;;;;;34.46;35.65;99714.06;4992296;28;20026;-85
2022/06/25 11:00:47;;;;;;;;;;;;;;;34.79;35.32;99714.94;4991533;28;19927;-83
2022/06/25 11:03:13;;;;;;;;;;;;;;;34.49;35.61;99713.63;4993133;28;20092;-86
2022/06/25 11:05:42;;;;;;;;;;;;;;;34.27;35.96;99710.16;4990569;28;20057;-85
2022/06/25 11:08:07;;;;;;;;;;;;;;;34.22;34.98;99706.31;4992414;28;20347;-84
2022/06/25 11:10:34;;;;;;;;;;;;;;;33.79;34.84;99705.69;4990130;28;20003;-85
2022/06/25 11:12:59;;;;;;;;;;;;;;;33.94;35.23;99700.91;4990103;28;19958;-82
2022/06/25 11:15:25;;;;;;;;;;;;;;;34.38;35.92;99701.25;4985803;28;20042;-85
2022/06/25 11:17:50;;;;;;;;;;;;;;;34.19;34.57;99706.72;4990494;28;19977;-84
2022/06/25 11:20:15;;;;;;;;;;;;;;;34.46;36.42;99698.34;4991464;28;19943;-85
2022/06/25 11:22:45;;;;;;;;;;;;;;;34.26;36.81;99691.91;4990319;28;19977;-82
2022/06/25 11:30:39;;;;;;;;;;;;;;;35.10;34.38;99692.19;4991179;28;20411;-82
2022/06/25 11:33:06;;;;;;;;;;;;;;;34.86;36.44;99693.66;4990344;28;20416;-84
2022/06/25 11:35:38;;;;;;;;;;;;;;;34.66;35.03;99686.44;4990145;28;19943;-85
2022/06/25 11:38:04;;;;;;;;;;;;;;;34.73;35.31;99684.53;4991848;28;19926;-84
2022/06/25 11:40:29;;;;;;;;;;;;;;;34.90;33.32;99689.44;4989815;28;20399;-84
2022/06/25 11:43:05;;;;;;;;;;;;;;;34.86;35.19;99677.06;4990617;28;19999;-83
2022/06/25 11:45:31;;;;;;;;;;;;;;;34.85;34.22;99682.81;4989316;28;20045;-86
2022/06/25 11:47:56;;;;;;;;;;;;;;;35.39;36.21;99684.28;4989534;28;20033;-83
2022/06/25 11:50:22;;;;;;;;;;;;;;;35.61;33.14;99677.41;4988897;28;20384;-82
2022/06/25 11:52:47;;;;;;;;;;;;;;;35.25;36.42;99674.31;4990459;28;19916;-83
2022/06/25 11:55:13;;;;;;;;;;;;;;;34.69;36.22;99675.81;4989559;28;19938;-86
2022/06/25 11:57:39;;;;;;;;;;;;;;;34.31;35.92;99671.91;4989712;28;19954;-85
2022/06/25 12:00:07;;;;;;;;;;;;;;;33.94;35.12;99678.84;4989546;28;20302;-82
2022/06/25 12:02:33;;;;;;;;;;;;;;;34.23;36.67;99663.84;4991127;28;19948;-85
2022/06/25 12:04:59;;;;;;;;;;;;;;;34.45;37.16;99662.59;4990371;28;20009;-85
2022/06/25 12:07:29;;;;;;;;;;;;;;;34.92;38.33;99653.28;4993394;28;19952;-85
2022/06/25 12:09:56;;;;;;;;;;;;;;;35.49;34.95;99661.69;5011398;28;19920;-86
2022/06/25 12:12:25;;;;;;;;;;;;;;;35.55;38.13;99656.13;5010750;28;19931;-82
2022/06/25 12:14:51;;;;;;;;;;;;;;;36.05;37.19;99661.91;4993937;28;20086;-82
2022/06/25 12:17:17;;;;;;;;;;;;;;;36.48;36.12;99654.59;5009908;28;19950;-86
2022/06/25 12:19:53;;;;;;;;;;;;;;;36.79;32.44;99654.56;5009331;28;19979;-85
2022/06/25 12:22:22;;;;;;;;;;;;;;;36.38;34.35;99655.09;5008878;28;20738;-85
2022/06/25 12:24:47;;;;;;;;;;;;;;;35.29;33.28;99649.84;4995215;28;19969;-84
2022/06/25 12:27:12;;;;;;;;;;;;;;;34.85;35.25;99650.50;5002693;28;19976;-82
2022/06/25 12:29:38;;;;;;;;;;;;;;;35.22;36.29;99649.00;4994597;28;19953;-82
2022/06/25 12:32:03;;;;;;;;;;;;;;;35.68;36.21;99649.72;5009682;28;20005;-82
2022/06/25 12:34:28;;;;;;;;;;;;;;;35.91;34.66;99654.75;4994601;28;19937;-84
2022/06/25 12:36:54;;;;;;;;;;;;;;;36.27;34.13;99643.84;4993595;28;20635;-84
2022/06/25 12:39:30;;;;;;;;;;;;;;;36.37;33.75;99639.56;5010570;28;19931;-81
2022/06/25 12:41:56;;;;;;;;;;;;;;;36.25;35.07;99635.78;5010216;28;19950;-81
2022/06/25 12:44:22;;;;;;;;;;;;;;;36.32;36.78;99635.72;5011384;28;19940;-83
2022/06/25 12:47:00;;;;;;;;;;;;;;;36.39;35.18;99631.03;4994098;28;20011;-81
2022/06/25 12:49:25;;;;;;;;;;;;;;;36.37;33.53;99635.94;5014087;28;19931;-83
2022/06/25 12:51:51;;;;;;;;;;;;;;;36.56;33.87;99629.38;4996050;28;19946;-81
2022/06/25 12:54:16;;;;;;;;;;;;;;;36.58;32.56;99627.22;5013656;28;19930;-83
2022/06/25 12:56:41;;;;;;;;;;;;;;;36.51;34.85;99624.50;5014236;28;19930;-81